Flournoy, Louisiana
Current Conditions -  °F | °C
As of 3:56 PM on Friday 24 Oct 2014 (Local Time) from KSHV Reporting Station
Few Clouds Few Clouds  
Wind Chill: 78°   Ceiling: Unl
Heat Index: 79°   Visibility: 10mi
Dew Point: 53°   Wind: 3mph
Humidity: 42%   Direction: NA
Pressure: 30.11"   Gusts: NA
Location:  32.4646°N, 93.8137°W
Report Text: KSHV 242056Z VRB03KT 10SM FEW300 26/12 A3011 RMK AO2 SLP192 T02560117 56015
Loading
Personal Weather Stations






























Interactive Weather Map
Tropical Storm Tracking
New forecast layout! Learn more

10-Day Weather Forecast

Advertisements
Track Severe Weather on mobile